sensor_id;sensor_type;location;lat;lon;timestamp;P1;durP1;ratioP1;P2;durP2;ratioP2
12441;SDS011;6285;48.804;9.220;2023-03-01T00:00:06;20.35;;;14.40;;
12441;SDS011;6285;48.804;9.220;2023-03-01T00:02:33;21.63;;;15.27;;
12441;SDS011;6285;48.804;9.220;2023-03-01T00:05:00;20.27;;;14.63;;
12441;SDS011;6285;48.804;9.220;2023-03-01T00:07:27;18.45;;;14.13;;
12441;SDS011;6285;48.804;9.220;2023-03-01T00:09:54;21.15;;;15.05;;
12441;SDS011;6285;48.804;9.220;2023-03-01T00:12:21;22.55;;;17.70;;
12441;SDS011;6285;48.804;9.220;2023-03-01T00:14:48;21.50;;;15.18;;
12441;SDS011;6285;48.804;9.220;2023-03-01T00:17:17;22.13;;;14.75;;
12441;SDS011;6285;48.804;9.220;2023-03-01T00:19:44;19.77;;;13.40;;
12441;SDS011;6285;48.804;9.220;2023-03-01T00:22:11;20.38;;;14.27;;
12441;SDS011;6285;48.804;9.220;2023-03-01T00:24:38;20.73;;;15.35;;
12441;SDS011;6285;48.804;9.220;2023-03-01T00:27:05;19.75;;;14.95;;
12441;SDS011;6285;48.804;9.220;2023-03-01T00:29:32;22.17;;;16.05;;
12441;SDS011;6285;48.804;9.220;2023-03-01T00:31:59;19.55;;;13.77;;
12441;SDS011;6285;48.804;9.220;2023-03-01T00:34:28;19.23;;;13.98;;
12441;SDS011;6285;48.804;9.220;2023-03-01T00:36:55;22.70;;;14.80;;
12441;SDS011;6285;48.804;9.220;2023-03-01T00:39:29;22.13;;;14.02;;
12441;SDS011;6285;48.804;9.220;2023-03-01T00:41:57;19.50;;;14.48;;
12441;SDS011;6285;48.804;9.220;2023-03-01T00:44:24;19.10;;;13.93;;
12441;SDS011;6285;48.804;9.220;2023-03-01T00:46:51;21.38;;;14.55;;
12441;SDS011;6285;48.804;9.220;2023-03-01T00:49:18;17.08;;;13.85;;
12441;SDS011;6285;48.804;9.220;2023-03-01T00:51:46;20.20;;;14.43;;
12441;SDS011;6285;48.804;9.220;2023-03-01T00:54:13;20.23;;;14.93;;
12441;SDS011;6285;48.804;9.220;2023-03-01T00:56:40;21.95;;;14.60;;
12441;SDS011;6285;48.804;9.220;2023-03-01T00:59:07;20.80;;;14.15;;
12441;SDS011;6285;48.804;9.220;2023-03-01T01:01:34;22.30;;;15.23;;
12441;SDS011;6285;48.804;9.220;2023-03-01T01:04:02;19.27;;;14.05;;
12441;SDS011;6285;48.804;9.220;2023-03-01T01:06:31;21.95;;;14.35;;
12441;SDS011;6285;48.804;9.220;2023-03-01T01:09:01;18.08;;;13.18;;
12441;SDS011;6285;48.804;9.220;2023-03-01T01:11:28;19.60;;;14.55;;
12441;SDS011;6285;48.804;9.220;2023-03-01T01:13:56;18.20;;;13.35;;
12441;SDS011;6285;48.804;9.220;2023-03-01T01:16:24;23.52;;;14.40;;
12441;SDS011;6285;48.804;9.220;2023-03-01T01:18:52;20.05;;;13.82;;
12441;SDS011;6285;48.804;9.220;2023-03-01T01:21:20;18.23;;;12.93;;
12441;SDS011;6285;48.804;9.220;2023-03-01T01:23:47;18.25;;;13.95;;
12441;SDS011;6285;48.804;9.220;2023-03-01T01:26:17;19.65;;;13.90;;
12441;SDS011;6285;48.804;9.220;2023-03-01T01:28:44;20.58;;;14.20;;
12441;SDS011;6285;48.804;9.220;2023-03-01T01:31:11;19.35;;;13.43;;
12441;SDS011;6285;48.804;9.220;2023-03-01T01:33:38;20.27;;;15.40;;
12441;SDS011;6285;48.804;9.220;2023-03-01T01:36:06;19.52;;;15.10;;
12441;SDS011;6285;48.804;9.220;2023-03-01T01:38:33;20.33;;;14.80;;
12441;SDS011;6285;48.804;9.220;2023-03-01T01:41:00;19.60;;;14.50;;
12441;SDS011;6285;48.804;9.220;2023-03-01T01:43:30;18.80;;;14.05;;
12441;SDS011;6285;48.804;9.220;2023-03-01T01:45:57;24.90;;;18.77;;
12441;SDS011;6285;48.804;9.220;2023-03-01T01:48:27;18.77;;;14.23;;
12441;SDS011;6285;48.804;9.220;2023-03-01T01:51:05;19.20;;;14.13;;
12441;SDS011;6285;48.804;9.220;2023-03-01T01:53:33;18.52;;;14.02;;
12441;SDS011;6285;48.804;9.220;2023-03-01T01:56:01;20.45;;;14.20;;
12441;SDS011;6285;48.804;9.220;2023-03-01T01:58:30;18.77;;;14.52;;
12441;SDS011;6285;48.804;9.220;2023-03-01T02:00:57;19.10;;;14.52;;
12441;SDS011;6285;48.804;9.220;2023-03-01T02:03:26;18.70;;;13.68;;
12441;SDS011;6285;48.804;9.220;2023-03-01T02:05:58;21.58;;;14.00;;
12441;SDS011;6285;48.804;9.220;2023-03-01T02:08:28;19.02;;;14.00;;
12441;SDS011;6285;48.804;9.220;2023-03-01T02:10:56;22.05;;;14.13;;
12441;SDS011;6285;48.804;9.220;2023-03-01T02:13:24;21.33;;;13.98;;
12441;SDS011;6285;48.804;9.220;2023-03-01T02:15:53;19.02;;;14.10;;
12441;SDS011;6285;48.804;9.220;2023-03-01T02:18:21;20.15;;;14.50;;
12441;SDS011;6285;48.804;9.220;2023-03-01T02:20:51;19.10;;;14.18;;
12441;SDS011;6285;48.804;9.220;2023-03-01T02:23:22;18.92;;;13.93;;
12441;SDS011;6285;48.804;9.220;2023-03-01T02:25:52;20.73;;;14.13;;
12441;SDS011;6285;48.804;9.220;2023-03-01T02:28:24;22.25;;;15.32;;
12441;SDS011;6285;48.804;9.220;2023-03-01T02:30:51;19.60;;;14.38;;
12441;SDS011;6285;48.804;9.220;2023-03-01T02:33:38;20.10;;;14.90;;
12441;SDS011;6285;48.804;9.220;2023-03-01T02:36:06;19.35;;;14.15;;
12441;SDS011;6285;48.804;9.220;2023-03-01T02:38:35;21.38;;;14.75;;
12441;SDS011;6285;48.804;9.220;2023-03-01T02:41:02;18.70;;;14.80;;
12441;SDS011;6285;48.804;9.220;2023-03-01T02:43:32;20.15;;;14.25;;
12441;SDS011;6285;48.804;9.220;2023-03-01T02:46:04;21.63;;;15.68;;
12441;SDS011;6285;48.804;9.220;2023-03-01T02:48:42;22.13;;;14.68;;
12441;SDS011;6285;48.804;9.220;2023-03-01T02:51:10;20.67;;;14.82;;
12441;SDS011;6285;48.804;9.220;2023-03-01T02:53:41;21.67;;;15.15;;
12441;SDS011;6285;48.804;9.220;2023-03-01T02:56:08;20.85;;;14.63;;
12441;SDS011;6285;48.804;9.220;2023-03-01T02:58:39;19.60;;;14.60;;
12441;SDS011;6285;48.804;9.220;2023-03-01T03:01:10;22.27;;;15.23;;
12441;SDS011;6285;48.804;9.220;2023-03-01T03:03:38;21.02;;;15.10;;
12441;SDS011;6285;48.804;9.220;2023-03-01T03:06:05;22.48;;;14.85;;
12441;SDS011;6285;48.804;9.220;2023-03-01T03:08:33;17.48;;;14.68;;
12441;SDS011;6285;48.804;9.220;2023-03-01T03:11:00;19.08;;;14.23;;
12441;SDS011;6285;48.804;9.220;2023-03-01T03:13:27;23.23;;;16.02;;
12441;SDS011;6285;48.804;9.220;2023-03-01T03:15:55;20.70;;;16.13;;
12441;SDS011;6285;48.804;9.220;2023-03-01T03:18:23;20.40;;;15.85;;
12441;SDS011;6285;48.804;9.220;2023-03-01T03:20:51;23.02;;;15.68;;
12441;SDS011;6285;48.804;9.220;2023-03-01T03:23:19;23.58;;;15.90;;
12441;SDS011;6285;48.804;9.220;2023-03-01T03:25:47;19.63;;;15.07;;
12441;SDS011;6285;48.804;9.220;2023-03-01T03:28:15;19.20;;;14.77;;
12441;SDS011;6285;48.804;9.220;2023-03-01T03:30:42;21.35;;;14.80;;
12441;SDS011;6285;48.804;9.220;2023-03-01T03:33:11;24.00;;;16.13;;
12441;SDS011;6285;48.804;9.220;2023-03-01T03:35:40;24.00;;;16.40;;
12441;SDS011;6285;48.804;9.220;2023-03-01T03:38:08;19.17;;;15.52;;
12441;SDS011;6285;48.804;9.220;2023-03-01T03:40:41;22.63;;;14.90;;
12441;SDS011;6285;48.804;9.220;2023-03-01T03:43:09;23.70;;;16.10;;
12441;SDS011;6285;48.804;9.220;2023-03-01T03:45:37;24.77;;;16.38;;
12441;SDS011;6285;48.804;9.220;2023-03-01T03:48:05;22.83;;;16.10;;
12441;SDS011;6285;48.804;9.220;2023-03-01T03:50:33;21.52;;;14.98;;
12441;SDS011;6285;48.804;9.220;2023-03-01T03:53:00;21.65;;;15.32;;
12441;SDS011;6285;48.804;9.220;2023-03-01T03:55:27;23.00;;;16.60;;
12441;SDS011;6285;48.804;9.220;2023-03-01T03:57:56;23.00;;;16.02;;
12441;SDS011;6285;48.804;9.220;2023-03-01T04:00:27;23.60;;;16.65;;
12441;SDS011;6285;48.804;9.220;2023-03-01T04:02:54;22.80;;;16.00;;
12441;SDS011;6285;48.804;9.220;2023-03-01T04:05:21;23.65;;;15.80;;
12441;SDS011;6285;48.804;9.220;2023-03-01T04:07:50;22.75;;;15.85;;
12441;SDS011;6285;48.804;9.220;2023-03-01T04:10:26;22.15;;;15.55;;
12441;SDS011;6285;48.804;9.220;2023-03-01T04:12:53;22.27;;;16.05;;
12441;SDS011;6285;48.804;9.220;2023-03-01T04:15:21;21.90;;;16.33;;
12441;SDS011;6285;48.804;9.220;2023-03-01T04:17:49;24.10;;;16.05;;
12441;SDS011;6285;48.804;9.220;2023-03-01T04:20:17;21.45;;;15.15;;
12441;SDS011;6285;48.804;9.220;2023-03-01T04:22:50;24.63;;;16.25;;
12441;SDS011;6285;48.804;9.220;2023-03-01T04:25:18;25.77;;;17.23;;
12441;SDS011;6285;48.804;9.220;2023-03-01T04:27:45;25.58;;;17.10;;
12441;SDS011;6285;48.804;9.220;2023-03-01T04:30:12;23.55;;;15.65;;
12441;SDS011;6285;48.804;9.220;2023-03-01T04:32:39;21.25;;;15.95;;
12441;SDS011;6285;48.804;9.220;2023-03-01T04:35:06;23.42;;;16.58;;
12441;SDS011;6285;48.804;9.220;2023-03-01T04:37:34;22.40;;;16.35;;
12441;SDS011;6285;48.804;9.220;2023-03-01T04:40:02;22.67;;;15.88;;
12441;SDS011;6285;48.804;9.220;2023-03-01T04:42:37;21.00;;;16.17;;
12441;SDS011;6285;48.804;9.220;2023-03-01T04:45:05;22.00;;;16.70;;
12441;SDS011;6285;48.804;9.220;2023-03-01T04:47:37;22.67;;;16.00;;
12441;SDS011;6285;48.804;9.220;2023-03-01T04:50:05;22.25;;;16.30;;
12441;SDS011;6285;48.804;9.220;2023-03-01T04:52:32;22.20;;;15.90;;
12441;SDS011;6285;48.804;9.220;2023-03-01T04:54:59;22.65;;;16.17;;
12441;SDS011;6285;48.804;9.220;2023-03-01T04:57:28;22.55;;;15.68;;
12441;SDS011;6285;48.804;9.220;2023-03-01T04:59:55;23.55;;;16.17;;
12441;SDS011;6285;48.804;9.220;2023-03-01T05:02:22;22.48;;;15.70;;
12441;SDS011;6285;48.804;9.220;2023-03-01T05:04:49;23.17;;;17.20;;
12441;SDS011;6285;48.804;9.220;2023-03-01T05:07:16;22.58;;;16.65;;
12441;SDS011;6285;48.804;9.220;2023-03-01T05:09:44;22.45;;;16.33;;
12441;SDS011;6285;48.804;9.220;2023-03-01T05:12:11;25.15;;;16.52;;
12441;SDS011;6285;48.804;9.220;2023-03-01T05:14:40;21.67;;;15.80;;
12441;SDS011;6285;48.804;9.220;2023-03-01T05:17:07;24.85;;;16.75;;
12441;SDS011;6285;48.804;9.220;2023-03-01T05:19:34;20.05;;;15.73;;
12441;SDS011;6285;48.804;9.220;2023-03-01T05:22:01;22.83;;;15.80;;
12441;SDS011;6285;48.804;9.220;2023-03-01T05:24:31;22.63;;;15.45;;
12441;SDS011;6285;48.804;9.220;2023-03-01T05:26:58;20.63;;;16.30;;
12441;SDS011;6285;48.804;9.220;2023-03-01T05:29:26;23.38;;;16.45;;
12441;SDS011;6285;48.804;9.220;2023-03-01T05:31:55;22.05;;;15.38;;
12441;SDS011;6285;48.804;9.220;2023-03-01T05:34:23;20.58;;;15.90;;
12441;SDS011;6285;48.804;9.220;2023-03-01T05:36:50;24.65;;;16.27;;
12441;SDS011;6285;48.804;9.220;2023-03-01T05:39:18;24.02;;;16.58;;
12441;SDS011;6285;48.804;9.220;2023-03-01T05:41:45;20.95;;;15.73;;
12441;SDS011;6285;48.804;9.220;2023-03-01T05:44:13;22.20;;;16.40;;
12441;SDS011;6285;48.804;9.220;2023-03-01T05:46:40;21.55;;;15.60;;
12441;SDS011;6285;48.804;9.220;2023-03-01T05:49:09;20.13;;;15.95;;
12441;SDS011;6285;48.804;9.220;2023-03-01T05:51:38;22.75;;;16.17;;
12441;SDS011;6285;48.804;9.220;2023-03-01T05:54:05;21.52;;;16.15;;
12441;SDS011;6285;48.804;9.220;2023-03-01T05:56:32;22.55;;;16.67;;
12441;SDS011;6285;48.804;9.220;2023-03-01T05:59:00;25.77;;;16.73;;
12441;SDS011;6285;48.804;9.220;2023-03-01T06:01:27;22.67;;;15.38;;
12441;SDS011;6285;48.804;9.220;2023-03-01T06:03:54;20.35;;;15.13;;
12441;SDS011;6285;48.804;9.220;2023-03-01T06:06:23;23.30;;;16.30;;
12441;SDS011;6285;48.804;9.220;2023-03-01T06:08:50;24.67;;;16.55;;
12441;SDS011;6285;48.804;9.220;2023-03-01T06:11:17;22.75;;;15.25;;
12441;SDS011;6285;48.804;9.220;2023-03-01T06:13:44;22.13;;;16.00;;
12441;SDS011;6285;48.804;9.220;2023-03-01T06:16:12;22.40;;;15.88;;
12441;SDS011;6285;48.804;9.220;2023-03-01T06:18:39;22.48;;;16.05;;
12441;SDS011;6285;48.804;9.220;2023-03-01T06:21:07;22.30;;;16.10;;
12441;SDS011;6285;48.804;9.220;2023-03-01T06:23:35;22.17;;;16.05;;
12441;SDS011;6285;48.804;9.220;2023-03-01T06:26:05;26.23;;;19.20;;
12441;SDS011;6285;48.804;9.220;2023-03-01T06:28:32;22.35;;;17.25;;
12441;SDS011;6285;48.804;9.220;2023-03-01T06:30:59;21.25;;;16.00;;
12441;SDS011;6285;48.804;9.220;2023-03-01T06:33:26;24.45;;;16.63;;
12441;SDS011;6285;48.804;9.220;2023-03-01T06:35:54;21.98;;;16.70;;
12441;SDS011;6285;48.804;9.220;2023-03-01T06:38:21;23.77;;;16.00;;
12441;SDS011;6285;48.804;9.220;2023-03-01T06:40:52;24.98;;;17.17;;
12441;SDS011;6285;48.804;9.220;2023-03-01T06:43:20;24.17;;;16.10;;
12441;SDS011;6285;48.804;9.220;2023-03-01T06:45:47;23.02;;;16.92;;
12441;SDS011;6285;48.804;9.220;2023-03-01T06:48:14;26.10;;;17.10;;
12441;SDS011;6285;48.804;9.220;2023-03-01T06:50:41;21.85;;;16.13;;
12441;SDS011;6285;48.804;9.220;2023-03-01T06:53:08;24.13;;;16.83;;
12441;SDS011;6285;48.804;9.220;2023-03-01T06:55:35;22.85;;;16.65;;
12441;SDS011;6285;48.804;9.220;2023-03-01T06:58:04;25.35;;;17.23;;
12441;SDS011;6285;48.804;9.220;2023-03-01T07:00:31;26.08;;;17.08;;
12441;SDS011;6285;48.804;9.220;2023-03-01T07:02:59;21.40;;;16.38;;
12441;SDS011;6285;48.804;9.220;2023-03-01T07:05:27;25.00;;;16.85;;
12441;SDS011;6285;48.804;9.220;2023-03-01T07:07:54;21.55;;;16.35;;
12441;SDS011;6285;48.804;9.220;2023-03-01T07:10:22;24.00;;;17.00;;
12441;SDS011;6285;48.804;9.220;2023-03-01T07:12:49;23.20;;;16.80;;
12441;SDS011;6285;48.804;9.220;2023-03-01T07:15:17;24.20;;;17.27;;
12441;SDS011;6285;48.804;9.220;2023-03-01T07:17:45;24.13;;;17.40;;
12441;SDS011;6285;48.804;9.220;2023-03-01T07:20:14;24.25;;;17.17;;
12441;SDS011;6285;48.804;9.220;2023-03-01T07:22:42;23.10;;;15.70;;
12441;SDS011;6285;48.804;9.220;2023-03-01T07:25:09;22.42;;;17.15;;
12441;SDS011;6285;48.804;9.220;2023-03-01T07:27:36;24.73;;;17.95;;
12441;SDS011;6285;48.804;9.220;2023-03-01T07:30:04;24.70;;;17.08;;
12441;SDS011;6285;48.804;9.220;2023-03-01T07:32:32;25.48;;;17.42;;
12441;SDS011;6285;48.804;9.220;2023-03-01T07:34:59;24.20;;;16.85;;
12441;SDS011;6285;48.804;9.220;2023-03-01T07:37:26;24.60;;;16.17;;
12441;SDS011;6285;48.804;9.220;2023-03-01T07:39:53;22.85;;;16.38;;
12441;SDS011;6285;48.804;9.220;2023-03-01T07:42:20;26.17;;;17.80;;
12441;SDS011;6285;48.804;9.220;2023-03-01T07:44:47;24.73;;;17.25;;
12441;SDS011;6285;48.804;9.220;2023-03-01T07:47:14;22.10;;;16.27;;
12441;SDS011;6285;48.804;9.220;2023-03-01T07:49:57;25.05;;;17.40;;
12441;SDS011;6285;48.804;9.220;2023-03-01T07:52:26;23.02;;;16.80;;
12441;SDS011;6285;48.804;9.220;2023-03-01T07:54:53;22.35;;;17.02;;
12441;SDS011;6285;48.804;9.220;2023-03-01T07:57:20;22.95;;;16.52;;
12441;SDS011;6285;48.804;9.220;2023-03-01T07:59:47;21.85;;;16.83;;
12441;SDS011;6285;48.804;9.220;2023-03-01T08:02:14;20.65;;;16.00;;
12441;SDS011;6285;48.804;9.220;2023-03-01T08:04:41;23.00;;;18.75;;
12441;SDS011;6285;48.804;9.220;2023-03-01T08:07:09;21.75;;;16.20;;
12441;SDS011;6285;48.804;9.220;2023-03-01T08:09:36;21.13;;;16.02;;
12441;SDS011;6285;48.804;9.220;2023-03-01T08:12:04;21.58;;;17.10;;
12441;SDS011;6285;48.804;9.220;2023-03-01T08:14:31;22.58;;;16.88;;
12441;SDS011;6285;48.804;9.220;2023-03-01T08:16:58;20.50;;;16.08;;
12441;SDS011;6285;48.804;9.220;2023-03-01T08:19:25;23.60;;;16.65;;
12441;SDS011;6285;48.804;9.220;2023-03-01T08:21:53;21.77;;;17.42;;
12441;SDS011;6285;48.804;9.220;2023-03-01T08:24:21;20.23;;;16.23;;
12441;SDS011;6285;48.804;9.220;2023-03-01T08:26:48;18.73;;;16.67;;
12441;SDS011;6285;48.804;9.220;2023-03-01T08:29:15;19.80;;;16.38;;
12441;SDS011;6285;48.804;9.220;2023-03-01T08:31:41;22.05;;;17.70;;
12441;SDS011;6285;48.804;9.220;2023-03-01T08:34:10;20.60;;;16.60;;
12441;SDS011;6285;48.804;9.220;2023-03-01T08:36:38;21.20;;;17.38;;
12441;SDS011;6285;48.804;9.220;2023-03-01T08:39:05;21.83;;;17.73;;
12441;SDS011;6285;48.804;9.220;2023-03-01T08:41:34;22.65;;;17.83;;
12441;SDS011;6285;48.804;9.220;2023-03-01T08:44:01;20.40;;;17.70;;
12441;SDS011;6285;48.804;9.220;2023-03-01T08:46:29;20.33;;;17.73;;
12441;SDS011;6285;48.804;9.220;2023-03-01T08:48:56;21.10;;;16.80;;
12441;SDS011;6285;48.804;9.220;2023-03-01T08:51:23;22.15;;;17.77;;
12441;SDS011;6285;48.804;9.220;2023-03-01T08:53:50;19.10;;;17.00;;
12441;SDS011;6285;48.804;9.220;2023-03-01T08:56:17;20.60;;;16.90;;
12441;SDS011;6285;48.804;9.220;2023-03-01T08:58:47;23.75;;;17.75;;
12441;SDS011;6285;48.804;9.220;2023-03-01T09:01:15;21.05;;;17.55;;
12441;SDS011;6285;48.804;9.220;2023-03-01T09:03:43;20.88;;;17.15;;
12441;SDS011;6285;48.804;9.220;2023-03-01T09:06:11;20.08;;;17.70;;
12441;SDS011;6285;48.804;9.220;2023-03-01T09:08:39;21.42;;;18.17;;
12441;SDS011;6285;48.804;9.220;2023-03-01T09:11:07;19.20;;;16.88;;
12441;SDS011;6285;48.804;9.220;2023-03-01T09:13:35;20.33;;;17.65;;
12441;SDS011;6285;48.804;9.220;2023-03-01T09:16:04;20.80;;;16.65;;
12441;SDS011;6285;48.804;9.220;2023-03-01T09:18:32;18.90;;;16.90;;
12441;SDS011;6285;48.804;9.220;2023-03-01T09:21:02;19.88;;;17.73;;
12441;SDS011;6285;48.804;9.220;2023-03-01T09:23:32;21.65;;;18.08;;
12441;SDS011;6285;48.804;9.220;2023-03-01T09:25:59;20.58;;;16.95;;
12441;SDS011;6285;48.804;9.220;2023-03-01T09:28:26;27.10;;;19.08;;
12441;SDS011;6285;48.804;9.220;2023-03-01T09:30:53;23.33;;;17.25;;
12441;SDS011;6285;48.804;9.220;2023-03-01T09:33:22;21.15;;;17.30;;
12441;SDS011;6285;48.804;9.220;2023-03-01T09:35:49;20.80;;;18.38;;
12441;SDS011;6285;48.804;9.220;2023-03-01T09:38:16;22.15;;;17.10;;
12441;SDS011;6285;48.804;9.220;2023-03-01T09:40:43;17.83;;;15.93;;
12441;SDS011;6285;48.804;9.220;2023-03-01T09:43:14;21.80;;;17.65;;
12441;SDS011;6285;48.804;9.220;2023-03-01T09:45:43;20.67;;;17.27;;
12441;SDS011;6285;48.804;9.220;2023-03-01T09:48:15;19.70;;;17.02;;
12441;SDS011;6285;48.804;9.220;2023-03-01T09:50:44;19.88;;;17.30;;
12441;SDS011;6285;48.804;9.220;2023-03-01T09:53:13;20.02;;;17.30;;
12441;SDS011;6285;48.804;9.220;2023-03-01T09:55:42;19.08;;;16.90;;
12441;SDS011;6285;48.804;9.220;2023-03-01T09:58:22;19.50;;;16.58;;
12441;SDS011;6285;48.804;9.220;2023-03-01T10:00:51;19.33;;;17.05;;
12441;SDS011;6285;48.804;9.220;2023-03-01T10:03:21;20.88;;;17.25;;
12441;SDS011;6285;48.804;9.220;2023-03-01T10:05:54;20.63;;;17.30;;
12441;SDS011;6285;48.804;9.220;2023-03-01T10:08:26;19.23;;;16.50;;
12441;SDS011;6285;48.804;9.220;2023-03-01T10:11:04;20.17;;;16.85;;
12441;SDS011;6285;48.804;9.220;2023-03-01T10:13:33;19.77;;;17.10;;
12441;SDS011;6285;48.804;9.220;2023-03-01T10:16:06;20.02;;;17.15;;
12441;SDS011;6285;48.804;9.220;2023-03-01T10:18:37;20.58;;;17.10;;
12441;SDS011;6285;48.804;9.220;2023-03-01T10:21:09;18.33;;;16.52;;
12441;SDS011;6285;48.804;9.220;2023-03-01T10:23:41;19.50;;;16.42;;
12441;SDS011;6285;48.804;9.220;2023-03-01T10:26:11;17.42;;;15.60;;
12441;SDS011;6285;48.804;9.220;2023-03-01T10:28:42;18.20;;;16.30;;
12441;SDS011;6285;48.804;9.220;2023-03-01T10:31:11;17.73;;;15.68;;
12441;SDS011;6285;48.804;9.220;2023-03-01T10:33:39;17.38;;;15.40;;
12441;SDS011;6285;48.804;9.220;2023-03-01T10:36:09;17.73;;;15.80;;
12441;SDS011;6285;48.804;9.220;2023-03-01T10:38:47;19.88;;;15.70;;
12441;SDS011;6285;48.804;9.220;2023-03-01T10:41:17;18.35;;;15.68;;
12441;SDS011;6285;48.804;9.220;2023-03-01T10:43:44;16.55;;;14.85;;
12441;SDS011;6285;48.804;9.220;2023-03-01T10:46:21;17.35;;;15.43;;
12441;SDS011;6285;48.804;9.220;2023-03-01T10:48:55;18.30;;;15.80;;
12441;SDS011;6285;48.804;9.220;2023-03-01T10:51:34;17.70;;;15.82;;
12441;SDS011;6285;48.804;9.220;2023-03-01T10:54:01;17.25;;;15.13;;
12441;SDS011;6285;48.804;9.220;2023-03-01T10:56:28;17.73;;;15.93;;
12441;SDS011;6285;48.804;9.220;2023-03-01T10:59:19;19.50;;;15.95;;
12441;SDS011;6285;48.804;9.220;2023-03-01T11:01:46;19.73;;;17.25;;
12441;SDS011;6285;48.804;9.220;2023-03-01T11:04:27;18.63;;;16.63;;
12441;SDS011;6285;48.804;9.220;2023-03-01T11:06:59;18.75;;;16.75;;
12441;SDS011;6285;48.804;9.220;2023-03-01T11:09:26;19.17;;;17.17;;
12441;SDS011;6285;48.804;9.220;2023-03-01T11:12:02;19.27;;;16.83;;
12441;SDS011;6285;48.804;9.220;2023-03-01T11:14:32;18.92;;;16.92;;
12441;SDS011;6285;48.804;9.220;2023-03-01T11:17:00;19.10;;;16.05;;
12441;SDS011;6285;48.804;9.220;2023-03-01T11:19:28;18.35;;;16.27;;
12441;SDS011;6285;48.804;9.220;2023-03-01T11:22:01;18.92;;;16.70;;
12441;SDS011;6285;48.804;9.220;2023-03-01T11:24:30;19.65;;;16.60;;
12441;SDS011;6285;48.804;9.220;2023-03-01T11:26:59;18.50;;;16.60;;
12441;SDS011;6285;48.804;9.220;2023-03-01T11:29:30;20.88;;;16.88;;
12441;SDS011;6285;48.804;9.220;2023-03-01T11:32:00;21.00;;;16.50;;
12441;SDS011;6285;48.804;9.220;2023-03-01T11:34:37;20.40;;;16.25;;
12441;SDS011;6285;48.804;9.220;2023-03-01T11:37:12;19.50;;;15.95;;
12441;SDS011;6285;48.804;9.220;2023-03-01T11:39:42;19.58;;;16.52;;
12441;SDS011;6285;48.804;9.220;2023-03-01T11:42:13;20.88;;;17.05;;
12441;SDS011;6285;48.804;9.220;2023-03-01T11:44:42;20.23;;;15.77;;
12441;SDS011;6285;48.804;9.220;2023-03-01T11:49:59;19.13;;;15.65;;
12441;SDS011;6285;48.804;9.220;2023-03-01T11:52:44;18.65;;;15.35;;
12441;SDS011;6285;48.804;9.220;2023-03-01T11:55:24;19.15;;;15.05;;
12441;SDS011;6285;48.804;9.220;2023-03-01T11:58:01;20.17;;;15.55;;
12441;SDS011;6285;48.804;9.220;2023-03-01T12:00:55;20.08;;;15.30;;
12441;SDS011;6285;48.804;9.220;2023-03-01T12:03:28;16.95;;;14.93;;
12441;SDS011;6285;48.804;9.220;2023-03-01T12:08:58;18.17;;;14.55;;
12441;SDS011;6285;48.804;9.220;2023-03-01T12:11:29;18.98;;;14.95;;
12441;SDS011;6285;48.804;9.220;2023-03-01T12:14:17;17.20;;;14.50;;
12441;SDS011;6285;48.804;9.220;2023-03-01T12:16:59;19.08;;;14.73;;
12441;SDS011;6285;48.804;9.220;2023-03-01T12:19:33;16.88;;;14.77;;
12441;SDS011;6285;48.804;9.220;2023-03-01T12:22:05;18.85;;;14.77;;
12441;SDS011;6285;48.804;9.220;2023-03-01T12:30:26;18.33;;;13.98;;
12441;SDS011;6285;48.804;9.220;2023-03-01T12:33:00;19.35;;;14.18;;
12441;SDS011;6285;48.804;9.220;2023-03-01T12:35:44;18.23;;;14.20;;
12441;SDS011;6285;48.804;9.220;2023-03-01T12:38:18;18.60;;;13.60;;
12441;SDS011;6285;48.804;9.220;2023-03-01T12:41:00;16.50;;;13.30;;
12441;SDS011;6285;48.804;9.220;2023-03-01T12:43:36;15.93;;;12.63;;
12441;SDS011;6285;48.804;9.220;2023-03-01T12:46:15;17.83;;;12.60;;
12441;SDS011;6285;48.804;9.220;2023-03-01T12:48:53;15.35;;;11.90;;
12441;SDS011;6285;48.804;9.220;2023-03-01T12:51:23;14.57;;;12.13;;
12441;SDS011;6285;48.804;9.220;2023-03-01T12:53:51;15.90;;;13.63;;
12441;SDS011;6285;48.804;9.220;2023-03-01T12:56:21;17.20;;;13.70;;
12441;SDS011;6285;48.804;9.220;2023-03-01T12:58:53;16.77;;;13.52;;
12441;SDS011;6285;48.804;9.220;2023-03-01T13:01:27;17.95;;;13.85;;
12441;SDS011;6285;48.804;9.220;2023-03-01T13:04:07;17.80;;;13.13;;
12441;SDS011;6285;48.804;9.220;2023-03-01T13:06:38;17.00;;;13.32;;
12441;SDS011;6285;48.804;9.220;2023-03-01T13:09:09;16.25;;;12.45;;
12441;SDS011;6285;48.804;9.220;2023-03-01T13:11:40;16.35;;;12.93;;
12441;SDS011;6285;48.804;9.220;2023-03-01T13:16:55;17.00;;;13.05;;
12441;SDS011;6285;48.804;9.220;2023-03-01T13:19:22;15.38;;;12.63;;
12441;SDS011;6285;48.804;9.220;2023-03-01T13:21:50;17.85;;;14.25;;
12441;SDS011;6285;48.804;9.220;2023-03-01T13:24:26;16.95;;;14.82;;
12441;SDS011;6285;48.804;9.220;2023-03-01T13:27:10;17.90;;;13.63;;
12441;SDS011;6285;48.804;9.220;2023-03-01T13:29:43;18.02;;;14.30;;
12441;SDS011;6285;48.804;9.220;2023-03-01T13:32:20;16.15;;;14.25;;
12441;SDS011;6285;48.804;9.220;2023-03-01T13:34:48;18.83;;;15.18;;
12441;SDS011;6285;48.804;9.220;2023-03-01T13:37:20;16.40;;;14.15;;
12441;SDS011;6285;48.804;9.220;2023-03-01T13:39:47;18.10;;;14.18;;
12441;SDS011;6285;48.804;9.220;2023-03-01T13:45:20;19.80;;;15.02;;
12441;SDS011;6285;48.804;9.220;2023-03-01T13:47:52;19.80;;;15.50;;
12441;SDS011;6285;48.804;9.220;2023-03-01T13:50:21;17.92;;;14.80;;
12441;SDS011;6285;48.804;9.220;2023-03-01T13:52:50;18.77;;;14.80;;
12441;SDS011;6285;48.804;9.220;2023-03-01T13:55:19;21.95;;;16.90;;
12441;SDS011;6285;48.804;9.220;2023-03-01T13:57:49;18.27;;;15.32;;
12441;SDS011;6285;48.804;9.220;2023-03-01T14:00:32;21.33;;;16.40;;
12441;SDS011;6285;48.804;9.220;2023-03-01T14:03:03;22.85;;;16.90;;
12441;SDS011;6285;48.804;9.220;2023-03-01T14:05:31;18.25;;;15.02;;
12441;SDS011;6285;48.804;9.220;2023-03-01T14:07:58;22.08;;;16.30;;
12441;SDS011;6285;48.804;9.220;2023-03-01T14:10:26;21.38;;;16.70;;
12441;SDS011;6285;48.804;9.220;2023-03-01T14:12:55;22.40;;;17.30;;
12441;SDS011;6285;48.804;9.220;2023-03-01T14:15:27;21.67;;;16.70;;
12441;SDS011;6285;48.804;9.220;2023-03-01T14:17:58;22.35;;;16.30;;
12441;SDS011;6285;48.804;9.220;2023-03-01T14:20:30;21.52;;;16.67;;
12441;SDS011;6285;48.804;9.220;2023-03-01T14:23:01;21.63;;;17.35;;
12441;SDS011;6285;48.804;9.220;2023-03-01T14:25:29;21.55;;;16.50;;
12441;SDS011;6285;48.804;9.220;2023-03-01T14:27:58;22.00;;;17.00;;
12441;SDS011;6285;48.804;9.220;2023-03-01T14:30:30;21.58;;;16.58;;
12441;SDS011;6285;48.804;9.220;2023-03-01T14:32:58;21.90;;;16.63;;
12441;SDS011;6285;48.804;9.220;2023-03-01T14:35:27;21.25;;;16.88;;
12441;SDS011;6285;48.804;9.220;2023-03-01T14:37:56;21.77;;;16.60;;
12441;SDS011;6285;48.804;9.220;2023-03-01T14:40:24;22.95;;;16.85;;
12441;SDS011;6285;48.804;9.220;2023-03-01T14:42:52;24.35;;;17.80;;
12441;SDS011;6285;48.804;9.220;2023-03-01T14:45:20;21.38;;;16.80;;
12441;SDS011;6285;48.804;9.220;2023-03-01T14:47:47;20.70;;;16.42;;
12441;SDS011;6285;48.804;9.220;2023-03-01T14:50:20;23.15;;;17.42;;
12441;SDS011;6285;48.804;9.220;2023-03-01T14:52:50;21.13;;;16.33;;
12441;SDS011;6285;48.804;9.220;2023-03-01T14:55:20;20.73;;;16.58;;
12441;SDS011;6285;48.804;9.220;2023-03-01T14:57:49;20.83;;;15.93;;
12441;SDS011;6285;48.804;9.220;2023-03-01T15:00:18;22.83;;;16.75;;
12441;SDS011;6285;48.804;9.220;2023-03-01T15:02:47;20.52;;;16.73;;